Time;durP1;ratioP1;P1;durP2;ratioP2;P2;SDS_P1;SDS_P2;PMS_P1;PMS_P2;Temp;Humidity;BMP_temperature;BMP_pressure;BME280_temperature;BME280_humidity;BME280_pressure;Samples;Min_cycle;Max_cycle;Signal;HPM_P1;HPM_P2
2024/01/06 00:00:51;;;;;;;23.90;13.10;;;;;;;-3.71;100.00;100279.31;90058;263;137009;-71
2024/01/06 00:02:52;;;;;;;16.60;11.20;;;;;;;-3.74;100.00;100283.98;89932;272;22909;-70
2024/01/06 00:04:54;;;;;;;18.60;12.30;;;;;;;-3.69;100.00;100290.66;90006;275;136818;-70
2024/01/06 00:06:56;;;;;;;20.60;13.40;;;;;;;-3.61;100.00;100286.30;90181;267;23026;-70
2024/01/06 00:08:58;;;;;;;18.00;11.70;;;;;;;-3.55;100.00;100282.98;89781;268;138494;-70
2024/01/06 00:11:02;;;;;;;17.50;12.70;;;;;;;-3.50;100.00;100287.36;90169;267;22353;-71
2024/01/06 00:13:04;;;;;;;17.50;11.70;;;;;;;-3.50;100.00;100293.94;90073;267;138640;-71
2024/01/06 00:15:06;;;;;;;19.80;13.20;;;;;;;-3.53;100.00;100294.30;90316;264;23101;-70
2024/01/06 00:17:08;;;;;;;18.30;12.00;;;;;;;-3.58;100.00;100291.52;89993;275;137306;-70
2024/01/06 00:19:10;;;;;;;26.60;13.10;;;;;;;-3.66;100.00;100295.86;90077;275;22710;-70
2024/01/06 00:21:12;;;;;;;18.50;10.80;;;;;;;-3.72;100.00;100296.04;90273;271;136660;-71
2024/01/06 00:23:14;;;;;;;18.80;11.50;;;;;;;-3.77;100.00;100301.94;90112;263;22335;-71
2024/01/06 00:25:16;;;;;;;15.20;10.50;;;;;;;-3.72;100.00;100302.66;90132;270;136764;-69
2024/01/06 00:27:17;;;;;;;17.90;10.30;;;;;;;-3.67;100.00;100300.59;90284;270;22989;-69
2024/01/06 00:29:19;;;;;;;11.40;8.30;;;;;;;-3.63;100.00;100298.26;90110;270;138156;-70
2024/01/06 00:31:21;;;;;;;13.60;9.40;;;;;;;-3.63;100.00;100299.48;90315;263;23126;-69
2024/01/06 00:33:22;;;;;;;15.10;9.90;;;;;;;-3.68;100.00;100301.69;89948;267;136332;-72
2024/01/06 00:35:25;;;;;;;14.40;9.80;;;;;;;-3.71;100.00;100304.83;89949;268;22218;-71
2024/01/06 00:37:26;;;;;;;17.90;11.70;;;;;;;-3.73;100.00;100314.66;90018;271;136264;-71
2024/01/06 00:39:28;;;;;;;14.60;10.40;;;;;;;-3.72;100.00;100328.32;90123;271;22248;-71
2024/01/06 00:41:30;;;;;;;15.20;9.90;;;;;;;-3.69;100.00;100328.51;89971;267;138248;-70
2024/01/06 00:43:32;;;;;;;14.30;9.70;;;;;;;-3.62;100.00;100326.50;90388;261;22370;-71
2024/01/06 00:45:34;;;;;;;14.80;9.60;;;;;;;-3.52;100.00;100331.21;89988;266;137852;-71
2024/01/06 00:47:35;;;;;;;16.70;9.30;;;;;;;-3.42;100.00;100329.04;90102;267;23008;-70
2024/01/06 00:49:37;;;;;;;18.40;10.80;;;;;;;-3.35;100.00;100333.62;87275;271;138443;-71
2024/01/06 00:51:39;;;;;;;16.50;11.20;;;;;;;-3.31;100.00;100334.90;87262;267;23734;-71
2024/01/06 00:53:41;;;;;;;14.60;10.10;;;;;;;-3.29;100.00;100337.44;87090;279;136823;-70
2024/01/06 00:55:43;;;;;;;13.30;9.80;;;;;;;-3.34;100.00;100338.06;87075;279;24148;-69
2024/01/06 00:57:45;;;;;;;13.80;9.30;;;;;;;-3.38;100.00;100340.10;87035;272;136612;-70
2024/01/06 00:59:47;;;;;;;10.80;7.90;;;;;;;-3.40;100.00;100343.17;87133;265;22556;-68
2024/01/06 01:01:49;;;;;;;13.30;8.00;;;;;;;-3.44;100.00;100326.41;87087;271;136201;-70
2024/01/06 01:03:50;;;;;;;12.50;7.90;;;;;;;-3.47;100.00;100323.95;87193;274;26364;-70
2024/01/06 01:05:52;;;;;;;15.60;8.80;;;;;;;-3.44;100.00;100327.60;87000;278;136958;-70
2024/01/06 01:07:54;;;;;;;14.30;8.60;;;;;;;-3.37;100.00;100320.19;87177;269;23646;-71
2024/01/06 01:09:56;;;;;;;11.50;8.00;;;;;;;-3.33;100.00;100319.39;87172;269;137804;-69
2024/01/06 01:11:58;;;;;;;11.70;7.70;;;;;;;-3.33;100.00;100320.29;87201;271;25137;-69
2024/01/06 01:14:00;;;;;;;10.50;7.30;;;;;;;-3.36;100.00;100314.23;89892;267;136555;-70
2024/01/06 01:16:03;;;;;;;9.50;7.40;;;;;;;-3.37;100.00;100307.66;90126;267;22946;-70
2024/01/06 01:18:04;;;;;;;10.60;6.50;;;;;;;-3.39;100.00;100301.03;90281;263;22209;-69
2024/01/06 01:20:07;;;;;;;8.30;5.90;;;;;;;-3.38;100.00;100298.73;90252;271;138276;-69
2024/01/06 01:22:08;;;;;;;10.10;7.10;;;;;;;-3.30;100.00;100293.55;90109;267;22323;-69
2024/01/06 01:24:10;;;;;;;10.00;6.20;;;;;;;-3.22;100.00;100285.02;90033;274;137234;-68
2024/01/06 01:26:12;;;;;;;10.30;7.90;;;;;;;-3.16;100.00;100283.52;90120;274;22200;-70
2024/01/06 01:28:14;;;;;;;12.40;8.20;;;;;;;-3.12;100.00;100279.98;90180;264;136827;-70
2024/01/06 01:30:16;;;;;;;12.20;7.80;;;;;;;-3.15;100.00;100274.77;90115;267;23141;-69
2024/01/06 01:32:18;;;;;;;11.40;7.70;;;;;;;-3.17;100.00;100275.08;89480;267;138295;-69
2024/01/06 01:34:20;;;;;;;11.20;8.40;;;;;;;-3.18;100.00;100277.80;87463;273;22555;-70
2024/01/06 01:36:24;;;;;;;11.10;6.90;;;;;;;-3.19;100.00;100270.70;87222;273;138013;-69
2024/01/06 01:38:26;;;;;;;9.90;6.90;;;;;;;-3.15;100.00;100272.88;87221;272;22560;-69
2024/01/06 01:40:28;;;;;;;13.30;6.20;;;;;;;-3.06;100.00;100273.66;87189;271;137140;-68
2024/01/06 01:42:30;;;;;;;10.90;6.80;;;;;;;-3.00;100.00;100263.50;87319;279;24062;-68
2024/01/06 01:44:32;;;;;;;10.10;6.90;;;;;;;-2.97;100.00;100260.88;87323;267;136903;-69
2024/01/06 01:46:34;;;;;;;9.30;7.90;;;;;;;-3.00;100.00;100259.90;87330;274;25210;-68
2024/01/06 01:48:35;;;;;;;10.10;7.10;;;;;;;-3.04;100.00;100246.98;87202;271;136292;-68
2024/01/06 01:50:37;;;;;;;11.50;6.90;;;;;;;-3.10;100.00;100238.99;87239;271;22557;-68
2024/01/06 01:52:40;;;;;;;9.90;7.40;;;;;;;-3.17;100.00;100236.73;87206;278;136520;-70
2024/01/06 01:54:44;;;;;;;9.50;6.60;;;;;;;-3.19;100.00;100242.73;87226;269;23618;-70
2024/01/06 01:56:46;;;;;;;10.40;7.10;;;;;;;-3.13;100.00;100249.30;87045;271;137184;-68
2024/01/06 01:58:48;;;;;;;8.30;5.90;;;;;;;-3.07;100.00;100251.32;87239;271;22588;-69
2024/01/06 02:00:50;;;;;;;9.20;6.60;;;;;;;-3.05;100.00;100258.17;86991;268;136958;-69
2024/01/06 02:02:52;;;;;;;10.20;7.00;;;;;;;-3.07;100.00;100247.71;87379;267;23391;-70
2024/01/06 02:04:55;;;;;;;8.00;5.90;;;;;;;-3.08;100.00;100239.57;87239;278;136680;-70
2024/01/06 02:06:57;;;;;;;8.10;5.50;;;;;;;-3.08;100.00;100240.95;87235;271;25192;-70
2024/01/06 02:08:59;;;;;;;8.10;5.80;;;;;;;-3.11;100.00;100243.47;87234;274;136733;-70
2024/01/06 02:11:01;;;;;;;8.60;5.80;;;;;;;-3.05;100.00;100243.05;87345;278;24062;-70
2024/01/06 02:13:12;;;;;;;8.00;4.60;;;;;;;-2.98;100.00;100241.48;87246;278;138302;-70
2024/01/06 02:15:14;;;;;;;8.10;5.50;;;;;;;-2.88;100.00;100243.95;87366;271;22556;-71
2024/01/06 02:17:16;;;;;;;6.90;5.50;;;;;;;-2.87;100.00;100246.67;87215;273;136291;-72
2024/01/06 02:19:18;;;;;;;8.50;5.90;;;;;;;-2.89;100.00;100251.38;87333;270;22548;-70
2024/01/06 02:21:22;;;;;;;10.00;6.60;;;;;;;-2.88;100.00;100248.17;87183;275;136216;-71
2024/01/06 02:23:25;;;;;;;8.70;5.70;;;;;;;-2.87;100.00;100237.09;87331;271;22582;-69
2024/01/06 02:25:27;;;;;;;9.10;6.00;;;;;;;-2.84;100.00;100232.24;87169;278;138911;-70
2024/01/06 02:27:29;;;;;;;9.80;6.40;;;;;;;-2.84;100.00;100226.09;87487;278;22562;-71
2024/01/06 02:29:31;;;;;;;8.90;5.50;;;;;;;-2.81;100.00;100227.66;87291;267;137249;-70
2024/01/06 02:31:33;;;;;;;8.50;5.90;;;;;;;-2.75;100.00;100226.53;87357;270;25223;-70
2024/01/06 02:33:36;;;;;;;9.70;6.80;;;;;;;-2.72;100.00;100234.88;87198;272;136850;-70
2024/01/06 02:35:39;;;;;;;9.00;6.70;;;;;;;-2.71;100.00;100229.23;87450;271;25089;-69
2024/01/06 02:37:41;;;;;;;10.90;8.10;;;;;;;-2.73;100.00;100222.61;87105;279;136208;-71
2024/01/06 02:39:43;;;;;;;9.90;6.60;;;;;;;-2.78;100.00;100207.80;87181;275;22572;-69
2024/01/06 02:41:47;;;;;;;10.10;6.10;;;;;;;-2.80;100.00;100202.71;87282;271;136234;-69
2024/01/06 02:43:49;;;;;;;8.70;6.70;;;;;;;-2.82;100.00;100202.71;87387;275;25242;-69
2024/01/06 02:45:51;;;;;;;7.80;5.70;;;;;;;-2.86;100.00;100209.57;87279;278;138500;-71
2024/01/06 02:47:53;;;;;;;10.60;6.70;;;;;;;-2.83;100.00;100201.34;87350;274;22788;-69
2024/01/06 02:49:55;;;;;;;7.40;6.30;;;;;;;-2.75;100.00;100198.89;87183;275;137281;-71
2024/01/06 02:51:59;;;;;;;7.90;5.20;;;;;;;-2.67;100.00;100204.30;87348;270;26313;-72
2024/01/06 02:54:01;;;;;;;8.80;5.80;;;;;;;-2.62;100.00;100204.42;87324;278;136362;-72
2024/01/06 02:56:04;;;;;;;6.70;5.10;;;;;;;-2.60;100.00;100199.27;86978;271;136980;-68
2024/01/06 02:58:06;;;;;;;6.30;4.60;;;;;;;-2.62;100.00;100191.06;87277;265;26304;-71
2024/01/06 03:00:08;;;;;;;7.70;5.20;;;;;;;-2.63;100.00;100197.73;87265;274;136581;-72
2024/01/06 03:02:11;;;;;;;5.60;4.30;;;;;;;-2.63;100.00;100202.61;87397;271;24667;-71
2024/01/06 03:04:13;;;;;;;6.50;4.50;;;;;;;-2.64;100.00;100206.11;87394;274;137895;-70
2024/01/06 03:06:15;;;;;;;6.20;4.40;;;;;;;-2.63;100.00;100201.71;87501;270;25076;-68
2024/01/06 03:08:18;;;;;;;5.30;3.90;;;;;;;-2.58;100.00;100205.52;87262;265;137294;-71
2024/01/06 03:10:19;;;;;;;7.20;5.10;;;;;;;-2.50;100.00;100202.05;87424;263;24625;-69
2024/01/06 03:12:21;;;;;;;7.10;4.20;;;;;;;-2.41;100.00;100205.24;87286;270;138605;-67
2024/01/06 03:14:23;;;;;;;7.50;4.70;;;;;;;-2.34;100.00;100206.16;87455;278;22564;-71
2024/01/06 03:16:25;;;;;;;5.10;4.00;;;;;;;-2.33;100.00;100203.66;87378;278;136705;-69
2024/01/06 03:18:29;;;;;;;6.70;4.30;;;;;;;-2.39;100.00;100200.56;87429;271;24064;-68
2024/01/06 03:20:31;;;;;;;8.00;4.60;;;;;;;-2.44;100.00;100198.15;87244;267;136287;-70
2024/01/06 03:22:33;;;;;;;5.40;4.30;;;;;;;-2.49;100.00;100189.28;87453;271;25218;-69
2024/01/06 03:24:34;;;;;;;6.60;4.70;;;;;;;-2.51;100.00;100182.33;87317;278;137516;-70
2024/01/06 03:26:37;;;;;;;5.60;4.50;;;;;;;-2.47;100.00;100178.04;87374;271;25091;-70
2024/01/06 03:28:39;;;;;;;7.60;4.00;;;;;;;-2.42;100.00;100169.14;87251;267;136922;-70
2024/01/06 03:30:41;;;;;;;4.80;3.90;;;;;;;-2.40;100.00;100172.96;87451;271;26201;-70
2024/01/06 03:32:45;;;;;;;4.70;4.10;;;;;;;-2.45;100.00;100169.66;87377;275;136395;-71
2024/01/06 03:34:47;;;;;;;4.70;4.00;;;;;;;-2.49;100.00;100171.89;87297;278;25231;-70
2024/01/06 03:36:49;;;;;;;5.40;4.20;;;;;;;-2.52;100.00;100181.13;87320;278;136714;-71
2024/01/06 03:38:51;;;;;;;6.20;3.50;;;;;;;-2.53;100.00;100178.11;87370;270;23994;-68
2024/01/06 03:40:52;;;;;;;4.40;3.10;;;;;;;-2.45;100.00;100173.14;87228;270;138414;-69
2024/01/06 03:42:54;;;;;;;2.50;2.00;;;;;;;-2.42;100.00;100174.50;87259;270;22560;-71
2024/01/06 03:44:56;;;;;;;3.40;2.30;;;;;;;-2.42;100.00;100175.91;87157;274;136383;-72
2024/01/06 03:46:58;;;;;;;4.10;2.50;;;;;;;-2.46;100.00;100177.42;87441;271;22558;-70
2024/01/06 03:49:02;;;;;;;2.90;2.50;;;;;;;-2.49;100.00;100173.82;87352;271;136043;-71
2024/01/06 03:51:06;;;;;;;2.50;2.20;;;;;;;-2.52;100.00;100177.82;87358;278;25089;-72
2024/01/06 03:53:08;;;;;;;2.10;1.70;;;;;;;-2.46;100.00;100178.47;87321;278;136539;-70
2024/01/06 03:55:10;;;;;;;3.60;2.00;;;;;;;-2.39;100.00;100182.27;87341;275;22564;-71
2024/01/06 03:57:12;;;;;;;2.40;2.20;;;;;;;-2.31;100.00;100180.37;87259;278;138060;-71
2024/01/06 03:59:16;;;;;;;1.60;1.50;;;;;;;-2.27;100.00;100179.16;87346;271;25781;-73
2024/01/06 04:01:18;;;;;;;2.90;1.90;;;;;;;-2.28;100.00;100182.24;87218;275;136621;-70
2024/01/06 04:03:19;;;;;;;2.50;2.30;;;;;;;-2.30;100.00;100185.89;87364;269;22580;-73
2024/01/06 04:05:21;;;;;;;5.20;3.70;;;;;;;-2.34;100.00;100193.26;87279;266;136290;-71
2024/01/06 04:07:24;;;;;;;5.50;3.60;;;;;;;-2.37;100.00;100199.35;87322;271;22561;-71
2024/01/06 04:09:26;;;;;;;2.80;2.40;;;;;;;-2.36;100.00;100202.29;87217;271;136691;-72
2024/01/06 04:11:27;;;;;;;1.70;1.60;;;;;;;-2.31;100.00;100204.21;87237;271;22559;-72
2024/01/06 04:13:32;;;;;;;3.00;2.40;;;;;;;-2.28;100.00;100201.18;87174;278;136724;-72
2024/01/06 04:15:33;;;;;;;3.60;2.50;;;;;;;-2.28;100.00;100198.58;87317;279;22586;-71
2024/01/06 04:17:36;;;;;;;3.20;2.00;;;;;;;-2.31;100.00;100193.77;87231;272;136448;-71
2024/01/06 04:19:38;;;;;;;4.60;2.80;;;;;;;-2.36;100.00;100194.39;87351;271;24052;-72
2024/01/06 04:22:40;;;;;;;2.20;1.70;;;;;;;-2.52;100.00;100171.85;84936;304;619700;-73
2024/01/06 04:24:44;;;;;;;3.90;2.60;;;;;;;-2.50;100.00;100150.69;86554;285;136475;-72
2024/01/06 04:26:48;;;;;;;2.60;2.00;;;;;;;-2.42;100.00;100149.59;86562;284;24032;-70
2024/01/06 04:28:49;;;;;;;2.00;1.60;;;;;;;-2.39;100.00;100144.16;86422;283;135954;-71
2024/01/06 04:30:51;;;;;;;2.10;1.70;;;;;;;-2.40;100.00;100144.29;86593;282;22730;-73
2024/01/06 04:32:53;;;;;;;2.50;2.30;;;;;;;-2.40;100.00;100149.48;86473;284;136608;-71
2024/01/06 04:34:57;;;;;;;1.40;1.30;;;;;;;-2.42;100.00;100152.58;86602;286;25145;-70
2024/01/06 04:36:59;;;;;;;2.80;2.60;;;;;;;-2.42;100.00;100168.92;86544;276;178855;-70
2024/01/06 04:39:01;;;;;;;3.20;2.00;;;;;;;-2.41;100.00;100172.69;86805;276;22741;-73
2024/01/06 04:41:03;;;;;;;2.40;2.20;;;;;;;-2.34;100.00;100176.70;86707;276;136515;-71
2024/01/06 04:43:04;;;;;;;4.30;1.90;;;;;;;-2.27;100.00;100186.66;87029;269;24149;-73
2024/01/06 04:45:08;;;;;;;4.50;2.30;;;;;;;-2.27;100.00;100197.11;86976;269;136451;-71
2024/01/06 04:47:10;;;;;;;2.40;1.70;;;;;;;-2.34;100.00;100194.49;87118;273;22567;-71
2024/01/06 04:49:12;;;;;;;3.00;2.80;;;;;;;-2.38;100.00;100188.83;86917;272;140168;-71
2024/01/06 04:51:14;;;;;;;8.40;3.60;;;;;;;-2.41;100.00;100191.67;87008;273;22557;-70
2024/01/06 04:53:16;;;;;;;4.70;2.90;;;;;;;-2.44;100.00;100189.81;87029;281;135865;-69
2024/01/06 04:55:18;;;;;;;3.80;3.10;;;;;;;-2.41;100.00;100188.15;87224;272;22564;-71
2024/01/06 04:57:20;;;;;;;2.80;2.30;;;;;;;-2.32;100.00;100184.06;87081;280;136650;-71
2024/01/06 04:59:23;;;;;;;3.10;1.70;;;;;;;-2.26;100.00;100184.36;87167;273;23551;-72
2024/01/06 05:01:25;;;;;;;3.00;2.80;;;;;;;-2.31;100.00;100178.23;87095;273;135959;-72
2024/01/06 05:03:27;;;;;;;5.80;2.60;;;;;;;-2.37;100.00;100174.14;87096;273;22576;-72
2024/01/06 05:05:29;;;;;;;4.60;3.60;;;;;;;-2.44;100.00;100173.08;87133;270;137503;-73
2024/01/06 05:07:31;;;;;;;3.50;3.10;;;;;;;-2.48;100.00;100170.56;87284;271;22828;-72
2024/01/06 05:09:33;;;;;;;5.80;3.40;;;;;;;-2.50;100.00;100173.88;86999;276;135621;-69
2024/01/06 05:11:35;;;;;;;3.90;3.30;;;;;;;-2.45;100.00;100179.74;87154;272;25195;-69
2024/01/06 05:13:38;;;;;;;4.40;3.10;;;;;;;-2.35;100.00;100177.81;87058;277;137579;-70
2024/01/06 05:15:40;;;;;;;8.10;4.80;;;;;;;-2.34;100.00;100180.89;87424;269;25194;-68
2024/01/06 05:17:41;;;;;;;5.40;4.70;;;;;;;-2.37;100.00;100181.62;87216;273;135931;-71
2024/01/06 05:19:43;;;;;;;7.30;4.90;;;;;;;-2.37;100.00;100175.21;87212;275;24591;-67
2024/01/06 05:21:47;;;;;;;6.00;3.90;;;;;;;-2.38;100.00;100175.45;89951;265;136962;-71
2024/01/06 05:23:49;;;;;;;5.80;4.50;;;;;;;-2.38;100.00;100168.15;87293;270;22569;-72
2024/01/06 05:25:51;;;;;;;4.20;3.80;;;;;;;-2.31;100.00;100173.92;86989;264;136326;-71
2024/01/06 05:27:53;;;;;;;6.20;5.40;;;;;;;-2.27;100.00;100167.00;87301;278;22559;-72
2024/01/06 05:29:55;;;;;;;5.60;4.80;;;;;;;-2.21;100.00;100169.71;87258;278;135681;-70
2024/01/06 05:31:57;;;;;;;8.00;5.70;;;;;;;-2.23;100.00;100168.83;87346;273;25249;-72
2024/01/06 05:33:58;;;;;;;8.10;6.30;;;;;;;-2.25;100.00;100164.91;87096;268;136302;-72
2024/01/06 05:36:02;;;;;;;8.70;6.60;;;;;;;-2.26;100.00;100165.69;87409;274;22568;-72
2024/01/06 05:38:04;;;;;;;7.90;6.30;;;;;;;-2.29;100.00;100157.95;87648;270;22589;-71
2024/01/06 05:40:07;;;;;;;9.70;7.40;;;;;;;-2.29;100.00;100157.76;87537;270;136522;-72
2024/01/06 05:42:14;;;;;;;10.80;6.20;;;;;;;-2.24;100.00;100152.69;87380;276;22558;-70
2024/01/06 05:44:16;;;;;;;6.90;5.30;;;;;;;-2.18;100.00;100152.24;89873;269;137599;-70
2024/01/06 05:46:22;;;;;;;10.00;6.50;;;;;;;-2.14;100.00;100154.05;89940;266;22944;-72
2024/01/06 05:48:24;;;;;;;9.30;7.40;;;;;;;-2.14;100.00;100150.94;89867;267;136891;-71
2024/01/06 05:50:26;;;;;;;9.10;7.10;;;;;;;-2.17;100.00;100148.34;89974;267;22375;-74
2024/01/06 05:52:28;;;;;;;7.70;6.40;;;;;;;-2.20;100.00;100143.34;89669;267;135788;-72
2024/01/06 05:54:30;;;;;;;7.40;5.50;;;;;;;-2.17;100.00;100144.01;89823;276;22412;-71
2024/01/06 05:56:32;;;;;;;8.40;6.00;;;;;;;-2.07;100.00;100140.86;89892;266;138343;-71
2024/01/06 05:58:34;;;;;;;9.00;6.00;;;;;;;-2.00;100.00;100140.69;89910;266;22339;-73
2024/01/06 06:00:36;;;;;;;6.90;5.60;;;;;;;-2.02;100.00;100128.98;88400;269;136087;-70
2024/01/06 06:02:39;;;;;;;11.70;7.80;;;;;;;-2.08;100.00;100122.96;87093;279;22564;-69
2024/01/06 06:04:41;;;;;;;8.30;5.90;;;;;;;-2.14;100.00;100121.83;89650;266;137762;-71
2024/01/06 06:06:43;;;;;;;8.30;6.10;;;;;;;-2.16;100.00;100126.52;88934;267;22539;-73
2024/01/06 06:08:45;;;;;;;6.90;5.50;;;;;;;-2.10;100.00;100126.48;86870;271;136604;-71
2024/01/06 06:10:59;;;;;;;7.70;5.60;;;;;;;-2.07;100.00;100129.36;87155;274;24014;-71
2024/01/06 06:13:01;;;;;;;8.10;6.50;;;;;;;-2.11;100.00;100121.13;86953;275;135942;-72
2024/01/06 06:15:04;;;;;;;8.30;7.40;;;;;;;-2.20;100.00;100109.70;87177;279;22564;-71
2024/01/06 06:17:07;;;;;;;7.70;5.90;;;;;;;-2.25;100.00;100106.30;86928;280;136678;-70
2024/01/06 06:19:09;;;;;;;9.40;5.80;;;;;;;-2.28;100.00;100101.95;87179;267;24010;-70
2024/01/06 06:21:11;;;;;;;6.30;5.30;;;;;;;-2.16;100.00;100098.86;87213;267;136704;-71
2024/01/06 06:23:13;;;;;;;8.70;5.60;;;;;;;-2.06;100.00;100098.98;87186;270;24147;-72
2024/01/06 06:25:15;;;;;;;6.80;6.10;;;;;;;-2.05;100.00;100097.48;87094;275;135654;-69
2024/01/06 06:27:17;;;;;;;8.00;6.50;;;;;;;-2.08;100.00;100096.73;87149;275;26683;-72
2024/01/06 06:29:20;;;;;;;8.00;7.00;;;;;;;-2.13;100.00;100092.86;86999;271;135857;-72
2024/01/06 06:31:22;;;;;;;7.20;5.10;;;;;;;-2.14;100.00;100091.07;87250;269;22552;-71
2024/01/06 06:33:24;;;;;;;7.80;5.80;;;;;;;-2.14;100.00;100096.61;86919;269;136177;-69
2024/01/06 06:35:26;;;;;;;9.60;5.10;;;;;;;-2.05;100.00;100095.63;87287;270;25186;-70
2024/01/06 06:37:28;;;;;;;7.10;5.60;;;;;;;-1.97;100.00;100092.71;86847;280;135825;-73
2024/01/06 06:39:31;;;;;;;9.60;6.20;;;;;;;-1.98;100.00;100089.67;87083;270;22580;-72
2024/01/06 06:41:33;;;;;;;9.50;7.30;;;;;;;-2.04;100.00;100090.26;87093;268;136601;-67
2024/01/06 06:43:35;;;;;;;10.00;6.50;;;;;;;-2.10;100.00;100079.98;87033;270;22672;-65
2024/01/06 06:45:37;;;;;;;8.90;6.90;;;;;;;-2.13;100.00;100078.64;86962;270;136646;-66
2024/01/06 06:47:39;;;;;;;10.90;8.10;;;;;;;-2.06;100.00;100075.11;87147;270;25079;-69
2024/01/06 06:49:41;;;;;;;10.10;7.00;;;;;;;-2.02;100.00;100069.66;87145;267;136507;-65
2024/01/06 06:51:47;;;;;;;11.80;7.50;;;;;;;-2.01;100.00;100067.27;87074;272;22637;-65
2024/01/06 06:53:49;;;;;;;11.00;8.10;;;;;;;-2.04;100.00;100071.34;87028;270;136233;-65
2024/01/06 06:55:51;;;;;;;14.40;8.80;;;;;;;-2.06;100.00;100081.27;88876;268;22565;-67
2024/01/06 06:57:53;;;;;;;9.50;7.00;;;;;;;-1.99;100.00;100075.30;89430;267;137693;-67
2024/01/06 06:59:55;;;;;;;14.40;8.60;;;;;;;-1.89;100.00;100078.42;87157;272;25339;-67
2024/01/06 07:01:57;;;;;;;12.70;8.80;;;;;;;-1.84;100.00;100082.86;87176;279;137697;-67
2024/01/06 07:03:59;;;;;;;13.10;9.50;;;;;;;-1.88;100.00;100087.23;87283;278;25118;-68
2024/01/06 07:06:01;;;;;;;11.90;9.90;;;;;;;-1.93;100.00;100091.73;87143;274;135771;-68
2024/01/06 07:08:03;;;;;;;13.10;8.90;;;;;;;-1.99;100.00;100100.35;87168;278;137621;-67
2024/01/06 07:10:06;;;;;;;11.50;8.10;;;;;;;-1.97;100.00;100103.33;87248;267;22844;-69
2024/01/06 07:12:08;;;;;;;10.60;8.00;;;;;;;-1.86;100.00;100098.36;87413;268;137393;-67
2024/01/06 07:14:10;;;;;;;16.50;9.90;;;;;;;-1.77;100.00;100097.70;87095;276;22658;-67
2024/01/06 07:16:12;;;;;;;11.00;8.80;;;;;;;-1.78;100.00;100093.22;87248;270;136509;-66
2024/01/06 07:18:23;;;;;;;15.30;9.90;;;;;;;-1.80;100.00;100095.62;87127;279;22576;-69
2024/01/06 07:20:25;;;;;;;13.10;10.50;;;;;;;-1.83;100.00;100092.71;87190;274;137458;-68
2024/01/06 07:22:27;;;;;;;11.90;8.70;;;;;;;-1.86;100.00;100091.70;86993;270;22579;-68
2024/01/06 07:24:29;;;;;;;13.90;9.40;;;;;;;-1.82;100.00;100091.78;87077;272;137053;-68
2024/01/06 07:26:31;;;;;;;11.20;8.60;;;;;;;-1.73;100.00;100089.05;87146;275;22544;-68
2024/01/06 07:28:32;;;;;;;14.10;8.90;;;;;;;-1.66;100.00;100087.66;86957;280;136858;-66
2024/01/06 07:30:34;;;;;;;15.70;10.00;;;;;;;-1.65;100.00;100091.58;87083;272;22713;-66
2024/01/06 07:32:36;;;;;;;16.30;10.20;;;;;;;-1.67;100.00;100094.83;87096;269;136560;-69
2024/01/06 07:34:40;;;;;;;11.50;9.80;;;;;;;-1.71;100.00;100088.93;87127;278;25129;-68
2024/01/06 07:36:42;;;;;;;10.70;8.90;;;;;;;-1.73;100.00;100092.88;87128;270;136909;-67
2024/01/06 07:38:45;;;;;;;10.10;7.40;;;;;;;-1.64;100.00;100090.14;87228;270;24098;-69
2024/01/06 07:40:47;;;;;;;10.80;7.40;;;;;;;-1.55;100.00;100090.31;86971;276;136578;-69
2024/01/06 07:42:51;;;;;;;11.40;7.80;;;;;;;-1.50;100.00;100088.88;87311;274;25182;-68
2024/01/06 07:44:54;;;;;;;10.90;8.30;;;;;;;-1.55;100.00;100087.13;87265;271;136245;-68
2024/01/06 07:46:56;;;;;;;10.90;8.60;;;;;;;-1.60;100.00;100082.29;87260;271;24011;-70
2024/01/06 07:48:57;;;;;;;9.50;6.90;;;;;;;-1.62;100.00;100084.91;87209;266;138046;-70
2024/01/06 07:50:59;;;;;;;11.60;7.20;;;;;;;-1.58;100.00;100082.83;87216;271;22639;-68
2024/01/06 07:53:01;;;;;;;8.30;5.60;;;;;;;-1.50;100.00;100083.29;87132;267;137254;-68
2024/01/06 07:55:04;;;;;;;8.00;5.30;;;;;;;-1.46;100.00;100088.23;87178;270;22570;-68
2024/01/06 07:57:05;;;;;;;6.60;5.50;;;;;;;-1.46;100.00;100086.01;87075;267;136205;-69
2024/01/06 07:59:07;;;;;;;8.90;4.50;;;;;;;-1.52;100.00;100085.69;87257;274;23486;-77
2024/01/06 08:01:09;;;;;;;6.90;4.40;;;;;;;-1.55;100.00;100076.06;87166;270;137624;-70
2024/01/06 08:03:12;;;;;;;5.70;5.00;;;;;;;-1.53;100.00;100075.19;87276;275;25201;-68
2024/01/06 08:05:14;;;;;;;4.60;3.60;;;;;;;-1.44;100.00;100071.00;87112;278;137081;-71
2024/01/06 08:07:16;;;;;;;4.80;4.30;;;;;;;-1.33;100.00;100075.95;87099;263;24733;-70
2024/01/06 08:09:18;;;;;;;5.00;4.40;;;;;;;-1.29;100.00;100074.04;87158;270;136161;-71
2024/01/06 08:11:19;;;;;;;5.40;4.70;;;;;;;-1.26;100.00;100081.31;87277;278;25191;-71
2024/01/06 08:13:21;;;;;;;4.70;4.00;;;;;;;-1.24;100.00;100069.30;87186;266;136308;-70
2024/01/06 08:15:23;;;;;;;5.90;4.40;;;;;;;-1.22;100.00;100072.59;87351;267;22817;-70
2024/01/06 08:17:25;;;;;;;6.90;4.80;;;;;;;-1.20;100.00;100077.53;86973;276;136424;-70
2024/01/06 08:19:29;;;;;;;7.60;4.40;;;;;;;-1.13;100.00;100072.13;87328;270;24036;-69
2024/01/06 08:21:31;;;;;;;6.50;4.20;;;;;;;-1.07;100.00;100073.35;87122;278;137981;-73
2024/01/06 08:23:33;;;;;;;9.50;5.90;;;;;;;-1.09;100.00;100079.93;86928;269;25184;-72
2024/01/06 08:25:35;;;;;;;6.90;4.40;;;;;;;-1.11;100.00;100079.45;86852;280;136273;-71
2024/01/06 08:27:36;;;;;;;9.40;4.90;;;;;;;-1.15;100.00;100077.65;87120;278;23795;-72
2024/01/06 08:29:39;;;;;;;9.80;5.90;;;;;;;-1.10;100.00;100078.52;86959;270;136703;-70
2024/01/06 08:31:40;;;;;;;7.30;5.10;;;;;;;-0.99;100.00;100069.48;87095;278;22564;-71
2024/01/06 08:33:42;;;;;;;7.40;5.90;;;;;;;-0.90;100.00;100065.38;86866;272;136924;-70
2024/01/06 08:35:45;;;;;;;9.70;7.60;;;;;;;-0.87;100.00;100062.24;87084;270;22545;-70
2024/01/06 08:37:47;;;;;;;10.50;6.70;;;;;;;-0.92;100.00;100068.86;86880;278;136692;-71
2024/01/06 08:39:49;;;;;;;12.50;8.20;;;;;;;-0.96;100.00;100072.37;87064;271;22648;-70
2024/01/06 08:41:51;;;;;;;7.90;6.50;;;;;;;-1.00;100.00;100064.40;86974;270;136695;-70
2024/01/06 08:43:54;;;;;;;11.30;6.70;;;;;;;-0.99;100.00;100072.20;86973;275;22982;-70
2024/01/06 08:45:56;;;;;;;11.10;6.10;;;;;;;-0.91;100.00;100068.81;87010;271;138899;-70
2024/01/06 08:47:58;;;;;;;8.20;5.90;;;;;;;-0.82;100.00;100070.90;87075;270;23216;-72
2024/01/06 08:50:00;;;;;;;5.60;5.00;;;;;;;-0.78;100.00;100078.41;89863;270;138258;-72
2024/01/06 08:52:02;;;;;;;9.30;5.80;;;;;;;-0.72;100.00;100076.20;90317;270;22227;-71
2024/01/06 08:54:05;;;;;;;8.90;6.40;;;;;;;-0.69;100.00;100073.02;90031;268;23194;-69
2024/01/06 08:56:08;;;;;;;12.90;6.50;;;;;;;-0.67;100.00;100067.78;89946;266;137284;-68
2024/01/06 08:58:10;;;;;;;8.90;6.50;;;;;;;-0.63;100.00;100066.90;89583;270;24254;-71
2024/01/06 09:00:12;;;;;;;12.30;7.30;;;;;;;-0.57;100.00;100065.96;87000;275;136294;-70
2024/01/06 09:02:14;;;;;;;10.10;7.00;;;;;;;-0.54;100.00;100065.21;90024;274;23083;-70
2024/01/06 09:04:16;;;;;;;11.70;7.40;;;;;;;-0.49;100.00;100062.82;89953;267;138292;-69
2024/01/06 09:06:18;;;;;;;9.90;7.60;;;;;;;-0.44;100.00;100053.69;90026;266;23147;-70
2024/01/06 09:08:19;;;;;;;11.30;6.70;;;;;;;-0.42;100.00;100053.17;90010;266;136585;-69
2024/01/06 09:10:22;;;;;;;7.00;5.40;;;;;;;-0.45;100.00;100062.19;89991;274;22204;-70
2024/01/06 09:12:23;;;;;;;9.40;6.10;;;;;;;-0.49;100.00;100061.45;90182;270;136075;-70
2024/01/06 09:14:26;;;;;;;7.10;5.50;;;;;;;-0.51;100.00;100064.77;90082;267;22218;-70
2024/01/06 09:16:28;;;;;;;9.30;6.30;;;;;;;-0.47;100.00;100066.51;89816;266;138094;-71
2024/01/06 09:18:29;;;;;;;10.70;6.30;;;;;;;-0.36;100.00;100059.52;90088;271;22350;-70
2024/01/06 09:20:31;;;;;;;8.40;6.20;;;;;;;-0.31;100.00;100053.55;90158;262;137155;-70
2024/01/06 09:22:33;;;;;;;11.60;7.20;;;;;;;-0.32;100.00;100053.61;90025;267;22371;-69